Terminal Aerodrome Forecast
Issued by NWS Greer, SC

Home | Current Version | Previous Version | Text Only | Print | Product List | Glossary On
Versions: 1 2 3 4 5 6 7 8 9 10 11 12 13
208
FTUS42 KGSP 090536
TAFGSP
TAF
KGSP 090536Z 0906/1006 26007KT P6SM SCT060
     FM091700 26011G19KT P6SM BKN050
     FM100000 27008KT P6SM BKN060=

USA.gov is the U.S. government's official web portal to all federal, state and local government web resources and services.